sensor_id;sensor_type;location;lat;lon;timestamp;temperature;humidity
3942;DHT22;1985;48.592;8.850;2022-10-13T00:01:17;12.90;99.90
3942;DHT22;1985;48.592;8.850;2022-10-13T00:03:43;12.90;99.90
3942;DHT22;1985;48.592;8.850;2022-10-13T00:06:13;12.90;99.90
3942;DHT22;1985;48.592;8.850;2022-10-13T00:08:40;12.90;99.90
3942;DHT22;1985;48.592;8.850;2022-10-13T00:13:38;12.90;99.90
3942;DHT22;1985;48.592;8.850;2022-10-13T00:16:04;13.00;99.90
3942;DHT22;1985;48.592;8.850;2022-10-13T00:18:30;12.90;99.90
3942;DHT22;1985;48.592;8.850;2022-10-13T00:20:56;13.00;99.90
3942;DHT22;1985;48.592;8.850;2022-10-13T00:23:21;12.90;99.90
3942;DHT22;1985;48.592;8.850;2022-10-13T00:25:49;12.90;99.90
3942;DHT22;1985;48.592;8.850;2022-10-13T00:28:17;12.90;99.90
3942;DHT22;1985;48.592;8.850;2022-10-13T00:30:43;12.90;99.90
3942;DHT22;1985;48.592;8.850;2022-10-13T00:33:10;13.00;99.90
3942;DHT22;1985;48.592;8.850;2022-10-13T00:35:44;13.00;99.90
3942;DHT22;1985;48.592;8.850;2022-10-13T00:38:11;12.90;99.90
3942;DHT22;1985;48.592;8.850;2022-10-13T00:40:51;12.80;99.90
3942;DHT22;1985;48.592;8.850;2022-10-13T00:43:18;12.90;99.90
3942;DHT22;1985;48.592;8.850;2022-10-13T00:45:44;12.90;99.90
3942;DHT22;1985;48.592;8.850;2022-10-13T00:48:10;12.80;99.90
3942;DHT22;1985;48.592;8.850;2022-10-13T00:50:38;12.70;99.90
3942;DHT22;1985;48.592;8.850;2022-10-13T00:53:06;12.70;99.90
3942;DHT22;1985;48.592;8.850;2022-10-13T00:55:34;12.80;99.90
3942;DHT22;1985;48.592;8.850;2022-10-13T00:58:02;12.60;99.90
3942;DHT22;1985;48.592;8.850;2022-10-13T01:00:30;12.70;99.90
3942;DHT22;1985;48.592;8.850;2022-10-13T01:02:57;12.80;99.90
3942;DHT22;1985;48.592;8.850;2022-10-13T01:05:23;12.70;99.90
3942;DHT22;1985;48.592;8.850;2022-10-13T01:07:50;12.80;99.90
3942;DHT22;1985;48.592;8.850;2022-10-13T01:10:28;12.80;99.90
3942;DHT22;1985;48.592;8.850;2022-10-13T01:15:50;13.10;99.90
3942;DHT22;1985;48.592;8.850;2022-10-13T01:21:32;13.20;99.90
3942;DHT22;1985;48.592;8.850;2022-10-13T01:24:21;13.20;99.90
3942;DHT22;1985;48.592;8.850;2022-10-13T01:27:31;13.20;99.90
3942;DHT22;1985;48.592;8.850;2022-10-13T01:35:06;13.30;99.90
3942;DHT22;1985;48.592;8.850;2022-10-13T01:40:30;13.50;99.90
3942;DHT22;1985;48.592;8.850;2022-10-13T01:43:21;13.50;99.90
3942;DHT22;1985;48.592;8.850;2022-10-13T01:46:00;13.60;99.90
3942;DHT22;1985;48.592;8.850;2022-10-13T01:48:28;13.60;99.90
3942;DHT22;1985;48.592;8.850;2022-10-13T01:50:55;13.60;99.90
3942;DHT22;1985;48.592;8.850;2022-10-13T01:53:22;13.50;99.90
3942;DHT22;1985;48.592;8.850;2022-10-13T01:58:15;13.40;99.90
3942;DHT22;1985;48.592;8.850;2022-10-13T02:00:52;13.40;99.90
3942;DHT22;1985;48.592;8.850;2022-10-13T02:03:25;13.40;99.90
3942;DHT22;1985;48.592;8.850;2022-10-13T02:08:37;13.30;99.90
3942;DHT22;1985;48.592;8.850;2022-10-13T02:13:31;13.30;99.90
3942;DHT22;1985;48.592;8.850;2022-10-13T02:15:59;13.40;99.90
3942;DHT22;1985;48.592;8.850;2022-10-13T02:18:29;13.40;99.90
3942;DHT22;1985;48.592;8.850;2022-10-13T02:20:56;13.40;99.90
3942;DHT22;1985;48.592;8.850;2022-10-13T02:23:22;13.40;99.90
3942;DHT22;1985;48.592;8.850;2022-10-13T02:25:48;13.40;99.90
3942;DHT22;1985;48.592;8.850;2022-10-13T02:28:16;13.40;99.90
3942;DHT22;1985;48.592;8.850;2022-10-13T02:30:43;13.40;99.90
3942;DHT22;1985;48.592;8.850;2022-10-13T02:33:12;13.40;99.90
3942;DHT22;1985;48.592;8.850;2022-10-13T02:35:38;13.40;99.90
3942;DHT22;1985;48.592;8.850;2022-10-13T02:38:05;13.50;99.90
3942;DHT22;1985;48.592;8.850;2022-10-13T02:40:31;13.50;99.90
3942;DHT22;1985;48.592;8.850;2022-10-13T02:42:56;13.60;99.90
3942;DHT22;1985;48.592;8.850;2022-10-13T02:45:22;13.70;99.90
3942;DHT22;1985;48.592;8.850;2022-10-13T02:47:48;13.70;99.90
3942;DHT22;1985;48.592;8.850;2022-10-13T02:50:13;13.80;99.90
3942;DHT22;1985;48.592;8.850;2022-10-13T02:52:39;13.80;99.90
3942;DHT22;1985;48.592;8.850;2022-10-13T02:55:05;13.90;99.90
3942;DHT22;1985;48.592;8.850;2022-10-13T02:57:31;14.00;99.90
3942;DHT22;1985;48.592;8.850;2022-10-13T02:59:57;13.90;99.90
3942;DHT22;1985;48.592;8.850;2022-10-13T03:02:22;13.80;99.90
3942;DHT22;1985;48.592;8.850;2022-10-13T03:04:50;13.70;99.90
3942;DHT22;1985;48.592;8.850;2022-10-13T03:07:16;13.50;99.90
3942;DHT22;1985;48.592;8.850;2022-10-13T03:09:41;13.30;99.90
3942;DHT22;1985;48.592;8.850;2022-10-13T03:12:07;13.20;99.90
3942;DHT22;1985;48.592;8.850;2022-10-13T03:14:33;13.20;99.90
3942;DHT22;1985;48.592;8.850;2022-10-13T03:16:58;13.20;99.90
3942;DHT22;1985;48.592;8.850;2022-10-13T03:19:24;13.20;99.90
3942;DHT22;1985;48.592;8.850;2022-10-13T03:21:50;13.10;99.90
3942;DHT22;1985;48.592;8.850;2022-10-13T03:24:15;13.10;99.90
3942;DHT22;1985;48.592;8.850;2022-10-13T03:26:41;13.20;99.90
3942;DHT22;1985;48.592;8.850;2022-10-13T03:29:06;13.10;99.90
3942;DHT22;1985;48.592;8.850;2022-10-13T03:31:32;13.00;99.90
3942;DHT22;1985;48.592;8.850;2022-10-13T03:33:57;12.90;99.90
3942;DHT22;1985;48.592;8.850;2022-10-13T03:36:23;12.90;99.90
3942;DHT22;1985;48.592;8.850;2022-10-13T03:38:49;12.80;99.90
3942;DHT22;1985;48.592;8.850;2022-10-13T03:41:16;12.80;99.90
3942;DHT22;1985;48.592;8.850;2022-10-13T03:43:43;12.80;99.90
3942;DHT22;1985;48.592;8.850;2022-10-13T03:46:14;12.60;99.90
3942;DHT22;1985;48.592;8.850;2022-10-13T03:48:42;12.50;99.90
3942;DHT22;1985;48.592;8.850;2022-10-13T03:51:13;12.50;99.90
3942;DHT22;1985;48.592;8.850;2022-10-13T03:53:39;12.50;99.90
3942;DHT22;1985;48.592;8.850;2022-10-13T03:56:05;12.50;99.90
3942;DHT22;1985;48.592;8.850;2022-10-13T03:58:32;12.50;99.90
3942;DHT22;1985;48.592;8.850;2022-10-13T04:01:02;12.50;99.90
3942;DHT22;1985;48.592;8.850;2022-10-13T04:03:29;12.50;99.90
3942;DHT22;1985;48.592;8.850;2022-10-13T04:05:54;12.50;99.90
3942;DHT22;1985;48.592;8.850;2022-10-13T04:08:20;12.50;99.90
3942;DHT22;1985;48.592;8.850;2022-10-13T04:10:45;12.60;99.90
3942;DHT22;1985;48.592;8.850;2022-10-13T04:13:11;12.70;99.90
3942;DHT22;1985;48.592;8.850;2022-10-13T04:15:37;12.70;99.90
3942;DHT22;1985;48.592;8.850;2022-10-13T04:18:04;12.80;99.90
3942;DHT22;1985;48.592;8.850;2022-10-13T04:20:30;12.60;99.90
3942;DHT22;1985;48.592;8.850;2022-10-13T04:22:55;12.50;99.90
3942;DHT22;1985;48.592;8.850;2022-10-13T04:25:21;12.30;99.90
3942;DHT22;1985;48.592;8.850;2022-10-13T04:27:47;12.40;99.90
3942;DHT22;1985;48.592;8.850;2022-10-13T04:30:13;12.40;99.90
3942;DHT22;1985;48.592;8.850;2022-10-13T04:32:39;12.50;99.90
3942;DHT22;1985;48.592;8.850;2022-10-13T04:35:04;12.50;99.90
3942;DHT22;1985;48.592;8.850;2022-10-13T04:37:30;12.40;99.90
3942;DHT22;1985;48.592;8.850;2022-10-13T04:39:56;12.30;99.90
3942;DHT22;1985;48.592;8.850;2022-10-13T04:42:22;12.40;99.90
3942;DHT22;1985;48.592;8.850;2022-10-13T04:44:47;12.30;99.90
3942;DHT22;1985;48.592;8.850;2022-10-13T04:47:13;12.20;99.90
3942;DHT22;1985;48.592;8.850;2022-10-13T04:49:38;12.30;99.90
3942;DHT22;1985;48.592;8.850;2022-10-13T04:52:04;12.40;99.90
3942;DHT22;1985;48.592;8.850;2022-10-13T04:54:30;12.60;99.90
3942;DHT22;1985;48.592;8.850;2022-10-13T04:56:55;12.60;99.90
3942;DHT22;1985;48.592;8.850;2022-10-13T04:59:21;12.60;99.90
3942;DHT22;1985;48.592;8.850;2022-10-13T05:01:46;12.70;99.90
3942;DHT22;1985;48.592;8.850;2022-10-13T05:04:12;12.70;99.90
3942;DHT22;1985;48.592;8.850;2022-10-13T05:06:40;12.80;99.90
3942;DHT22;1985;48.592;8.850;2022-10-13T05:09:06;12.90;99.90
3942;DHT22;1985;48.592;8.850;2022-10-13T05:11:32;12.80;99.90
3942;DHT22;1985;48.592;8.850;2022-10-13T05:13:58;12.70;99.90
3942;DHT22;1985;48.592;8.850;2022-10-13T05:16:24;12.70;99.90
3942;DHT22;1985;48.592;8.850;2022-10-13T05:18:52;12.80;99.90
3942;DHT22;1985;48.592;8.850;2022-10-13T05:21:23;12.90;99.90
3942;DHT22;1985;48.592;8.850;2022-10-13T05:23:50;13.10;99.90
3942;DHT22;1985;48.592;8.850;2022-10-13T05:26:24;13.20;99.90
3942;DHT22;1985;48.592;8.850;2022-10-13T05:28:55;13.20;99.90
3942;DHT22;1985;48.592;8.850;2022-10-13T05:31:22;13.10;99.90
3942;DHT22;1985;48.592;8.850;2022-10-13T05:33:49;12.90;99.90
3942;DHT22;1985;48.592;8.850;2022-10-13T05:36:18;12.70;99.90
3942;DHT22;1985;48.592;8.850;2022-10-13T05:38:52;12.60;99.90
3942;DHT22;1985;48.592;8.850;2022-10-13T05:41:19;12.60;99.90
3942;DHT22;1985;48.592;8.850;2022-10-13T05:43:45;12.50;99.90
3942;DHT22;1985;48.592;8.850;2022-10-13T05:46:10;12.50;99.90
3942;DHT22;1985;48.592;8.850;2022-10-13T05:48:37;12.50;99.90
3942;DHT22;1985;48.592;8.850;2022-10-13T05:51:06;12.70;99.90
3942;DHT22;1985;48.592;8.850;2022-10-13T05:53:36;12.80;99.90
3942;DHT22;1985;48.592;8.850;2022-10-13T05:56:07;12.80;99.90
3942;DHT22;1985;48.592;8.850;2022-10-13T05:58:39;13.00;99.90
3942;DHT22;1985;48.592;8.850;2022-10-13T06:01:07;13.10;99.90
3942;DHT22;1985;48.592;8.850;2022-10-13T06:03:35;13.20;99.90
3942;DHT22;1985;48.592;8.850;2022-10-13T06:06:02;13.10;99.90
3942;DHT22;1985;48.592;8.850;2022-10-13T06:08:29;13.10;99.90
3942;DHT22;1985;48.592;8.850;2022-10-13T06:10:54;13.20;99.90
3942;DHT22;1985;48.592;8.850;2022-10-13T06:13:20;13.20;99.90
3942;DHT22;1985;48.592;8.850;2022-10-13T06:15:46;13.20;99.90
3942;DHT22;1985;48.592;8.850;2022-10-13T06:18:11;13.20;99.90
3942;DHT22;1985;48.592;8.850;2022-10-13T06:20:37;13.20;99.90
3942;DHT22;1985;48.592;8.850;2022-10-13T06:23:02;13.10;99.90
3942;DHT22;1985;48.592;8.850;2022-10-13T06:25:28;13.00;99.90
3942;DHT22;1985;48.592;8.850;2022-10-13T06:27:55;12.90;99.90
3942;DHT22;1985;48.592;8.850;2022-10-13T06:30:21;12.80;99.90
3942;DHT22;1985;48.592;8.850;2022-10-13T06:32:47;12.80;99.90
3942;DHT22;1985;48.592;8.850;2022-10-13T06:35:12;12.60;99.90
3942;DHT22;1985;48.592;8.850;2022-10-13T06:37:39;12.60;99.90
3942;DHT22;1985;48.592;8.850;2022-10-13T06:40:05;12.60;99.90
3942;DHT22;1985;48.592;8.850;2022-10-13T06:42:30;12.70;99.90
3942;DHT22;1985;48.592;8.850;2022-10-13T06:44:58;12.70;99.90
3942;DHT22;1985;48.592;8.850;2022-10-13T06:47:24;12.60;99.90
3942;DHT22;1985;48.592;8.850;2022-10-13T06:49:49;12.70;99.90
3942;DHT22;1985;48.592;8.850;2022-10-13T06:52:15;12.60;99.90
3942;DHT22;1985;48.592;8.850;2022-10-13T06:54:41;12.40;99.90
3942;DHT22;1985;48.592;8.850;2022-10-13T06:57:06;12.40;99.90
3942;DHT22;1985;48.592;8.850;2022-10-13T06:59:32;12.40;99.90
3942;DHT22;1985;48.592;8.850;2022-10-13T07:01:58;12.40;99.90
3942;DHT22;1985;48.592;8.850;2022-10-13T07:04:23;12.40;99.90
3942;DHT22;1985;48.592;8.850;2022-10-13T07:06:50;12.30;99.90
3942;DHT22;1985;48.592;8.850;2022-10-13T07:09:16;12.30;99.90
3942;DHT22;1985;48.592;8.850;2022-10-13T07:11:45;12.20;99.90
3942;DHT22;1985;48.592;8.850;2022-10-13T07:14:12;12.40;99.90
3942;DHT22;1985;48.592;8.850;2022-10-13T07:16:38;12.60;99.90
3942;DHT22;1985;48.592;8.850;2022-10-13T07:19:04;12.70;99.90
3942;DHT22;1985;48.592;8.850;2022-10-13T07:21:30;12.80;99.90
3942;DHT22;1985;48.592;8.850;2022-10-13T07:23:56;12.80;99.90
3942;DHT22;1985;48.592;8.850;2022-10-13T07:26:21;12.90;99.90
3942;DHT22;1985;48.592;8.850;2022-10-13T07:28:47;12.80;99.90
3942;DHT22;1985;48.592;8.850;2022-10-13T07:31:17;12.70;99.90
3942;DHT22;1985;48.592;8.850;2022-10-13T07:33:45;12.90;99.90
3942;DHT22;1985;48.592;8.850;2022-10-13T07:36:11;12.90;99.90
3942;DHT22;1985;48.592;8.850;2022-10-13T07:38:37;13.00;99.90
3942;DHT22;1985;48.592;8.850;2022-10-13T07:41:04;13.20;99.90
3942;DHT22;1985;48.592;8.850;2022-10-13T07:43:30;13.30;99.90
3942;DHT22;1985;48.592;8.850;2022-10-13T07:46:00;13.50;99.90
3942;DHT22;1985;48.592;8.850;2022-10-13T07:48:27;13.60;99.90
3942;DHT22;1985;48.592;8.850;2022-10-13T07:50:53;13.70;99.90
3942;DHT22;1985;48.592;8.850;2022-10-13T07:53:18;13.70;99.90
3942;DHT22;1985;48.592;8.850;2022-10-13T07:55:44;13.80;99.90
3942;DHT22;1985;48.592;8.850;2022-10-13T07:58:09;13.80;99.90
3942;DHT22;1985;48.592;8.850;2022-10-13T08:00:35;13.80;99.90
3942;DHT22;1985;48.592;8.850;2022-10-13T08:03:01;13.80;99.90
3942;DHT22;1985;48.592;8.850;2022-10-13T08:05:27;13.70;99.90
3942;DHT22;1985;48.592;8.850;2022-10-13T08:07:56;13.60;99.90
3942;DHT22;1985;48.592;8.850;2022-10-13T08:10:22;13.50;99.90
3942;DHT22;1985;48.592;8.850;2022-10-13T08:12:48;13.60;99.90
3942;DHT22;1985;48.592;8.850;2022-10-13T08:15:14;13.60;99.90
3942;DHT22;1985;48.592;8.850;2022-10-13T08:17:39;13.70;99.90
3942;DHT22;1985;48.592;8.850;2022-10-13T08:20:05;13.60;99.90
3942;DHT22;1985;48.592;8.850;2022-10-13T08:22:32;13.60;99.90
3942;DHT22;1985;48.592;8.850;2022-10-13T08:25:02;13.50;99.90
3942;DHT22;1985;48.592;8.850;2022-10-13T08:27:28;13.60;99.90
3942;DHT22;1985;48.592;8.850;2022-10-13T08:29:54;13.70;99.90
3942;DHT22;1985;48.592;8.850;2022-10-13T08:32:21;13.80;99.90
3942;DHT22;1985;48.592;8.850;2022-10-13T08:34:47;14.00;99.90
3942;DHT22;1985;48.592;8.850;2022-10-13T08:37:14;14.20;99.90
3942;DHT22;1985;48.592;8.850;2022-10-13T08:39:40;14.40;99.90
3942;DHT22;1985;48.592;8.850;2022-10-13T08:42:15;14.40;99.90
3942;DHT22;1985;48.592;8.850;2022-10-13T08:44:48;14.50;99.90
3942;DHT22;1985;48.592;8.850;2022-10-13T08:47:22;14.50;99.90
3942;DHT22;1985;48.592;8.850;2022-10-13T08:49:49;14.30;99.90
3942;DHT22;1985;48.592;8.850;2022-10-13T08:52:23;14.50;99.90
3942;DHT22;1985;48.592;8.850;2022-10-13T08:54:50;14.70;99.90
3942;DHT22;1985;48.592;8.850;2022-10-13T08:57:17;14.60;99.90
3942;DHT22;1985;48.592;8.850;2022-10-13T08:59:43;14.60;99.90
3942;DHT22;1985;48.592;8.850;2022-10-13T09:02:14;14.70;99.90
3942;DHT22;1985;48.592;8.850;2022-10-13T09:04:48;14.60;99.90
3942;DHT22;1985;48.592;8.850;2022-10-13T09:07:19;14.60;99.90
3942;DHT22;1985;48.592;8.850;2022-10-13T09:09:50;14.60;99.90
3942;DHT22;1985;48.592;8.850;2022-10-13T09:12:16;14.60;99.90
3942;DHT22;1985;48.592;8.850;2022-10-13T09:15:00;14.60;99.90
3942;DHT22;1985;48.592;8.850;2022-10-13T09:17:27;14.60;99.90
3942;DHT22;1985;48.592;8.850;2022-10-13T09:22:42;14.60;99.90
3942;DHT22;1985;48.592;8.850;2022-10-13T09:30:43;14.90;99.90
3942;DHT22;1985;48.592;8.850;2022-10-13T09:35:41;14.80;99.90
3942;DHT22;1985;48.592;8.850;2022-10-13T09:38:16;15.00;99.90
3942;DHT22;1985;48.592;8.850;2022-10-13T09:40:43;15.30;99.90
3942;DHT22;1985;48.592;8.850;2022-10-13T09:46:25;15.90;99.90
3942;DHT22;1985;48.592;8.850;2022-10-13T09:48:55;16.20;99.90
3942;DHT22;1985;48.592;8.850;2022-10-13T09:51:42;16.30;99.90
3942;DHT22;1985;48.592;8.850;2022-10-13T09:54:35;16.30;99.90
3942;DHT22;1985;48.592;8.850;2022-10-13T10:07:45;16.00;99.90
3942;DHT22;1985;48.592;8.850;2022-10-13T10:10:33;15.90;99.90
3942;DHT22;1985;48.592;8.850;2022-10-13T10:13:00;15.80;99.90
3942;DHT22;1985;48.592;8.850;2022-10-13T10:16:00;15.90;99.90
3942;DHT22;1985;48.592;8.850;2022-10-13T10:18:35;15.90;99.90
3942;DHT22;1985;48.592;8.850;2022-10-13T10:21:09;15.90;99.90
3942;DHT22;1985;48.592;8.850;2022-10-13T10:23:45;16.00;99.90
3942;DHT22;1985;48.592;8.850;2022-10-13T10:31:37;16.30;99.90
3942;DHT22;1985;48.592;8.850;2022-10-13T10:36:54;16.20;99.90
3942;DHT22;1985;48.592;8.850;2022-10-13T10:39:45;16.30;99.90
3942;DHT22;1985;48.592;8.850;2022-10-13T10:44:50;16.40;99.90
3942;DHT22;1985;48.592;8.850;2022-10-13T10:47:24;16.40;99.90
3942;DHT22;1985;48.592;8.850;2022-10-13T10:49:56;16.40;99.90
3942;DHT22;1985;48.592;8.850;2022-10-13T10:52:33;16.40;99.90
3942;DHT22;1985;48.592;8.850;2022-10-13T10:56:16;16.60;99.90
3942;DHT22;1985;48.592;8.850;2022-10-13T10:58:23;16.70;99.90
3942;DHT22;1985;48.592;8.850;2022-10-13T11:01:01;16.70;99.90
3942;DHT22;1985;48.592;8.850;2022-10-13T11:03:53;16.80;99.90
3942;DHT22;1985;48.592;8.850;2022-10-13T11:06:23;16.80;99.90
3942;DHT22;1985;48.592;8.850;2022-10-13T11:08:50;16.70;99.90
3942;DHT22;1985;48.592;8.850;2022-10-13T11:19:01;17.00;99.90
3942;DHT22;1985;48.592;8.850;2022-10-13T11:24:51;17.30;99.90
3942;DHT22;1985;48.592;8.850;2022-10-13T11:30:00;17.40;99.90
3942;DHT22;1985;48.592;8.850;2022-10-13T11:43:32;17.60;99.90
3942;DHT22;1985;48.592;8.850;2022-10-13T11:54:38;17.30;99.90
3942;DHT22;1985;48.592;8.850;2022-10-13T11:57:23;17.40;99.90
3942;DHT22;1985;48.592;8.850;2022-10-13T11:59:51;17.80;99.90
3942;DHT22;1985;48.592;8.850;2022-10-13T12:02:24;17.90;99.90
3942;DHT22;1985;48.592;8.850;2022-10-13T12:07:45;17.90;99.90
3942;DHT22;1985;48.592;8.850;2022-10-13T12:10:24;18.00;99.90
3942;DHT22;1985;48.592;8.850;2022-10-13T12:12:52;18.10;99.90
3942;DHT22;1985;48.592;8.850;2022-10-13T12:15:29;18.30;99.90
3942;DHT22;1985;48.592;8.850;2022-10-13T12:17:55;18.50;99.90
3942;DHT22;1985;48.592;8.850;2022-10-13T12:20:26;18.50;99.90
3942;DHT22;1985;48.592;8.850;2022-10-13T12:22:53;18.70;99.90
3942;DHT22;1985;48.592;8.850;2022-10-13T12:25:24;18.70;99.90
3942;DHT22;1985;48.592;8.850;2022-10-13T12:27:53;18.90;99.90
3942;DHT22;1985;48.592;8.850;2022-10-13T12:30:33;19.30;99.90
3942;DHT22;1985;48.592;8.850;2022-10-13T12:33:03;19.60;99.90
3942;DHT22;1985;48.592;8.850;2022-10-13T12:35:42;19.50;99.90
3942;DHT22;1985;48.592;8.850;2022-10-13T12:38:16;19.40;99.90
3942;DHT22;1985;48.592;8.850;2022-10-13T12:40:44;19.20;99.90
3942;DHT22;1985;48.592;8.850;2022-10-13T12:43:18;19.00;99.90
3942;DHT22;1985;48.592;8.850;2022-10-13T12:45:45;18.90;99.90
3942;DHT22;1985;48.592;8.850;2022-10-13T12:48:30;18.80;99.90
3942;DHT22;1985;48.592;8.850;2022-10-13T12:51:12;18.80;99.90
3942;DHT22;1985;48.592;8.850;2022-10-13T12:53:40;18.80;99.90
3942;DHT22;1985;48.592;8.850;2022-10-13T12:56:06;18.80;99.90
3942;DHT22;1985;48.592;8.850;2022-10-13T12:58:34;18.70;99.90
3942;DHT22;1985;48.592;8.850;2022-10-13T13:03:38;18.80;99.90
3942;DHT22;1985;48.592;8.850;2022-10-13T13:08:40;18.60;99.90
3942;DHT22;1985;48.592;8.850;2022-10-13T13:11:23;18.40;99.90
3942;DHT22;1985;48.592;8.850;2022-10-13T13:13:49;18.40;99.90
3942;DHT22;1985;48.592;8.850;2022-10-13T13:18:43;18.30;99.90
3942;DHT22;1985;48.592;8.850;2022-10-13T13:21:12;18.30;99.90
3942;DHT22;1985;48.592;8.850;2022-10-13T13:23:38;18.20;99.90
3942;DHT22;1985;48.592;8.850;2022-10-13T13:28:47;18.00;99.90
3942;DHT22;1985;48.592;8.850;2022-10-13T13:31:14;17.90;99.90
3942;DHT22;1985;48.592;8.850;2022-10-13T13:33:40;17.80;99.90
3942;DHT22;1985;48.592;8.850;2022-10-13T13:36:23;17.70;99.90
3942;DHT22;1985;48.592;8.850;2022-10-13T13:38:49;17.70;99.90
3942;DHT22;1985;48.592;8.850;2022-10-13T13:41:15;17.80;99.90
3942;DHT22;1985;48.592;8.850;2022-10-13T13:43:41;17.80;99.90
3942;DHT22;1985;48.592;8.850;2022-10-13T13:46:20;17.90;99.90
3942;DHT22;1985;48.592;8.850;2022-10-13T13:48:47;18.10;99.90
3942;DHT22;1985;48.592;8.850;2022-10-13T13:51:13;18.10;99.90
3942;DHT22;1985;48.592;8.850;2022-10-13T13:53:38;18.10;99.90
3942;DHT22;1985;48.592;8.850;2022-10-13T13:56:04;18.10;99.90
3942;DHT22;1985;48.592;8.850;2022-10-13T13:58:30;18.10;99.90
3942;DHT22;1985;48.592;8.850;2022-10-13T14:00:58;18.20;99.90
3942;DHT22;1985;48.592;8.850;2022-10-13T14:03:24;18.10;99.90
3942;DHT22;1985;48.592;8.850;2022-10-13T14:05:49;18.00;99.90
3942;DHT22;1985;48.592;8.850;2022-10-13T14:08:15;17.90;99.90
3942;DHT22;1985;48.592;8.850;2022-10-13T14:10:40;17.90;99.90
3942;DHT22;1985;48.592;8.850;2022-10-13T14:13:06;17.80;99.90
3942;DHT22;1985;48.592;8.850;2022-10-13T14:15:32;17.90;99.90
3942;DHT22;1985;48.592;8.850;2022-10-13T14:17:57;17.90;99.90
3942;DHT22;1985;48.592;8.850;2022-10-13T14:20:23;17.80;99.90
3942;DHT22;1985;48.592;8.850;2022-10-13T14:22:49;17.70;99.90
3942;DHT22;1985;48.592;8.850;2022-10-13T14:25:14;17.40;99.90
3942;DHT22;1985;48.592;8.850;2022-10-13T14:27:40;17.40;99.90
3942;DHT22;1985;48.592;8.850;2022-10-13T14:30:07;17.40;99.90
3942;DHT22;1985;48.592;8.850;2022-10-13T14:32:35;17.20;99.90
3942;DHT22;1985;48.592;8.850;2022-10-13T14:35:00;17.20;99.90
3942;DHT22;1985;48.592;8.850;2022-10-13T14:37:26;17.20;99.90
3942;DHT22;1985;48.592;8.850;2022-10-13T14:39:51;17.10;99.90
3942;DHT22;1985;48.592;8.850;2022-10-13T14:42:17;17.10;99.90
3942;DHT22;1985;48.592;8.850;2022-10-13T14:44:43;17.20;99.90
3942;DHT22;1985;48.592;8.850;2022-10-13T14:47:08;17.30;99.90
3942;DHT22;1985;48.592;8.850;2022-10-13T14:49:34;17.30;99.90
3942;DHT22;1985;48.592;8.850;2022-10-13T14:51:59;17.30;99.90
3942;DHT22;1985;48.592;8.850;2022-10-13T14:54:25;17.40;99.90
3942;DHT22;1985;48.592;8.850;2022-10-13T14:56:51;17.40;99.90
3942;DHT22;1985;48.592;8.850;2022-10-13T14:59:17;17.50;99.90
3942;DHT22;1985;48.592;8.850;2022-10-13T15:01:44;17.40;99.90
3942;DHT22;1985;48.592;8.850;2022-10-13T15:04:10;17.40;99.90
3942;DHT22;1985;48.592;8.850;2022-10-13T15:06:36;17.50;99.90
3942;DHT22;1985;48.592;8.850;2022-10-13T15:09:04;17.50;99.90
3942;DHT22;1985;48.592;8.850;2022-10-13T15:11:30;17.50;99.90
3942;DHT22;1985;48.592;8.850;2022-10-13T15:13:55;17.50;99.90
3942;DHT22;1985;48.592;8.850;2022-10-13T15:16:26;17.60;99.90
3942;DHT22;1985;48.592;8.850;2022-10-13T15:18:53;17.50;99.90
3942;DHT22;1985;48.592;8.850;2022-10-13T15:21:19;17.30;99.90
3942;DHT22;1985;48.592;8.850;2022-10-13T15:23:45;17.30;99.90
3942;DHT22;1985;48.592;8.850;2022-10-13T15:26:13;16.90;99.90
3942;DHT22;1985;48.592;8.850;2022-10-13T15:28:41;16.80;99.90
3942;DHT22;1985;48.592;8.850;2022-10-13T15:31:07;16.70;99.90
3942;DHT22;1985;48.592;8.850;2022-10-13T15:33:32;16.70;99.90
3942;DHT22;1985;48.592;8.850;2022-10-13T15:35:58;16.70;99.90
3942;DHT22;1985;48.592;8.850;2022-10-13T15:38:24;16.80;99.90
3942;DHT22;1985;48.592;8.850;2022-10-13T15:40:50;16.70;99.90
3942;DHT22;1985;48.592;8.850;2022-10-13T15:43:16;16.50;99.90
3942;DHT22;1985;48.592;8.850;2022-10-13T15:45:42;16.50;99.90
3942;DHT22;1985;48.592;8.850;2022-10-13T15:48:10;16.50;99.90
3942;DHT22;1985;48.592;8.850;2022-10-13T15:50:39;16.50;99.90
3942;DHT22;1985;48.592;8.850;2022-10-13T15:53:05;16.50;99.90
3942;DHT22;1985;48.592;8.850;2022-10-13T15:55:31;16.40;99.90
3942;DHT22;1985;48.592;8.850;2022-10-13T15:57:57;16.20;99.90
3942;DHT22;1985;48.592;8.850;2022-10-13T16:00:23;16.00;99.90
3942;DHT22;1985;48.592;8.850;2022-10-13T16:02:50;15.80;99.90
3942;DHT22;1985;48.592;8.850;2022-10-13T16:05:16;15.80;99.90
3942;DHT22;1985;48.592;8.850;2022-10-13T16:07:42;15.80;99.90
3942;DHT22;1985;48.592;8.850;2022-10-13T16:10:10;15.80;99.90
3942;DHT22;1985;48.592;8.850;2022-10-13T16:12:37;15.80;99.90
3942;DHT22;1985;48.592;8.850;2022-10-13T16:15:03;15.80;99.90
3942;DHT22;1985;48.592;8.850;2022-10-13T16:17:29;15.80;99.90
3942;DHT22;1985;48.592;8.850;2022-10-13T16:19:55;15.60;99.90
3942;DHT22;1985;48.592;8.850;2022-10-13T16:22:21;15.50;99.90
3942;DHT22;1985;48.592;8.850;2022-10-13T16:24:46;15.40;99.90
3942;DHT22;1985;48.592;8.850;2022-10-13T16:27:12;15.30;99.90
3942;DHT22;1985;48.592;8.850;2022-10-13T16:29:37;15.30;99.90
3942;DHT22;1985;48.592;8.850;2022-10-13T16:32:03;15.20;99.90
3942;DHT22;1985;48.592;8.850;2022-10-13T16:34:28;15.20;99.90
3942;DHT22;1985;48.592;8.850;2022-10-13T16:36:54;15.20;99.90
3942;DHT22;1985;48.592;8.850;2022-10-13T16:39:20;15.20;99.90
3942;DHT22;1985;48.592;8.850;2022-10-13T16:41:47;15.10;99.90
3942;DHT22;1985;48.592;8.850;2022-10-13T16:44:13;15.30;99.90
3942;DHT22;1985;48.592;8.850;2022-10-13T16:46:39;15.40;99.90
3942;DHT22;1985;48.592;8.850;2022-10-13T16:49:06;15.50;99.90
3942;DHT22;1985;48.592;8.850;2022-10-13T16:51:32;15.50;99.90
3942;DHT22;1985;48.592;8.850;2022-10-13T16:53:58;15.60;99.90
3942;DHT22;1985;48.592;8.850;2022-10-13T16:56:26;15.70;99.90
3942;DHT22;1985;48.592;8.850;2022-10-13T16:58:54;15.80;99.90
3942;DHT22;1985;48.592;8.850;2022-10-13T17:01:20;15.80;99.90
3942;DHT22;1985;48.592;8.850;2022-10-13T17:03:47;16.00;99.90
3942;DHT22;1985;48.592;8.850;2022-10-13T17:06:14;16.00;99.90
3942;DHT22;1985;48.592;8.850;2022-10-13T17:08:40;16.10;99.90
3942;DHT22;1985;48.592;8.850;2022-10-13T17:11:07;16.10;99.90
3942;DHT22;1985;48.592;8.850;2022-10-13T17:13:34;16.20;99.90
3942;DHT22;1985;48.592;8.850;2022-10-13T17:16:01;16.20;99.90
3942;DHT22;1985;48.592;8.850;2022-10-13T17:18:27;16.20;99.90
3942;DHT22;1985;48.592;8.850;2022-10-13T17:20:55;16.30;99.90
3942;DHT22;1985;48.592;8.850;2022-10-13T17:23:22;16.20;99.90
3942;DHT22;1985;48.592;8.850;2022-10-13T17:25:48;16.20;99.90
3942;DHT22;1985;48.592;8.850;2022-10-13T17:28:14;16.10;99.90
3942;DHT22;1985;48.592;8.850;2022-10-13T17:30:40;15.70;99.90
3942;DHT22;1985;48.592;8.850;2022-10-13T17:33:05;15.20;99.90
3942;DHT22;1985;48.592;8.850;2022-10-13T17:35:32;14.90;99.90
3942;DHT22;1985;48.592;8.850;2022-10-13T17:37:57;14.90;99.90
3942;DHT22;1985;48.592;8.850;2022-10-13T17:40:23;14.80;99.90
3942;DHT22;1985;48.592;8.850;2022-10-13T17:42:49;14.70;99.90
3942;DHT22;1985;48.592;8.850;2022-10-13T17:45:14;14.80;99.90
3942;DHT22;1985;48.592;8.850;2022-10-13T17:47:47;14.80;99.90
3942;DHT22;1985;48.592;8.850;2022-10-13T17:50:13;14.50;99.90
3942;DHT22;1985;48.592;8.850;2022-10-13T17:52:39;14.30;99.90
3942;DHT22;1985;48.592;8.850;2022-10-13T17:55:05;14.30;99.90